createdAt,value
2022-11-19T00:01:34.519Z,0.20
2022-11-19T00:04:02.519Z,0.20
2022-11-19T00:06:31.841Z,0.30
2022-11-19T00:08:59.844Z,0.20
2022-11-19T00:11:46.483Z,0.30
2022-11-19T00:14:18.640Z,0.20
2022-11-19T00:16:47.036Z,0.20
2022-11-19T00:19:18.400Z,0.20
2022-11-19T00:21:50.150Z,0.10
2022-11-19T00:24:18.318Z,0.10
2022-11-19T00:26:46.346Z,0.10
2022-11-19T00:29:18.053Z,0.10
2022-11-19T00:31:46.316Z,0.10
2022-11-19T00:34:14.482Z,0.10
2022-11-19T00:36:42.458Z,0.10
2022-11-19T00:39:11.824Z,0.20
2022-11-19T00:41:39.806Z,0.20
2022-11-19T00:44:07.917Z,0.10
2022-11-19T00:46:35.956Z,0.10
2022-11-19T00:49:04.242Z,0.10
2022-11-19T00:51:32.604Z,0.20
2022-11-19T00:54:00.668Z,0.20
2022-11-19T00:56:30.070Z,0.10
2022-11-19T00:58:58.092Z,0.20
2022-11-19T01:01:27.493Z,0.10
2022-11-19T01:03:56.243Z,0.10
2022-11-19T01:06:26.235Z,0.00
2022-11-19T01:08:55.213Z,0.10
2022-11-19T01:11:25.117Z,0.00
2022-11-19T01:13:54.511Z,0.00
2022-11-19T01:16:25.152Z,0.10
2022-11-19T01:18:54.016Z,0.10
2022-11-19T01:21:23.378Z,0.10
2022-11-19T01:23:51.973Z,0.10
2022-11-19T01:26:20.782Z,0.10
2022-11-19T01:28:49.068Z,0.10
2022-11-19T01:31:20.653Z,0.10
2022-11-19T01:33:49.206Z,0.10
2022-11-19T01:36:18.761Z,0.10
2022-11-19T01:38:50.710Z,0.10
2022-11-19T01:41:19.010Z,0.10
2022-11-19T01:43:49.031Z,0.10
2022-11-19T01:46:19.833Z,0.10
2022-11-19T01:48:52.656Z,0.10
2022-11-19T01:51:24.927Z,0.10
2022-11-19T01:53:54.744Z,0.10
2022-11-19T01:56:24.595Z,0.10
2022-11-19T01:58:58.455Z,0.00
2022-11-19T02:01:30.161Z,0.00
2022-11-19T02:04:01.615Z,0.00
2022-11-19T02:06:31.351Z,0.00
2022-11-19T02:09:00.523Z,0.00
2022-11-19T02:11:55.892Z,0.00
2022-11-19T02:14:51.887Z,0.00
2022-11-19T02:17:32.612Z,0.00
2022-11-19T02:20:37.075Z,0.00
2022-11-19T02:23:33.595Z,0.00
2022-11-19T02:26:26.674Z,-0.10
2022-11-19T02:29:00.959Z,-0.10
2022-11-19T02:31:33.564Z,-0.10
2022-11-19T02:34:09.862Z,-0.10
2022-11-19T02:36:43.206Z,-0.10
2022-11-19T02:39:18.949Z,-0.20
2022-11-19T02:41:54.472Z,-0.20
2022-11-19T02:44:44.035Z,-0.20
2022-11-19T02:47:15.855Z,-0.20
2022-11-19T02:49:45.866Z,-0.20
2022-11-19T02:52:15.895Z,-0.20
2022-11-19T02:54:43.987Z,-0.20
2022-11-19T02:57:13.451Z,-0.30
2022-11-19T03:00:03.184Z,-0.20
2022-11-19T03:02:54.808Z,-0.20
2022-11-19T03:05:28.151Z,-0.20
2022-11-19T03:07:56.377Z,-0.20
2022-11-19T03:10:28.436Z,-0.20
2022-11-19T03:13:27.756Z,-0.10
2022-11-19T03:16:14.858Z,-0.10
2022-11-19T03:18:50.612Z,-0.20
2022-11-19T03:21:25.556Z,-0.20
2022-11-19T03:23:58.523Z,-0.20
2022-11-19T03:26:30.971Z,-0.20
2022-11-19T03:29:01.829Z,-0.20
2022-11-19T03:31:31.948Z,-0.20
2022-11-19T03:34:05.313Z,-0.10
2022-11-19T03:36:38.247Z,-0.20
2022-11-19T03:39:11.023Z,-0.20
2022-11-19T03:41:41.861Z,-0.20
2022-11-19T03:44:15.760Z,-0.10
2022-11-19T03:46:45.148Z,-0.20
2022-11-19T03:49:16.505Z,-0.10
2022-11-19T03:51:49.591Z,-0.20
2022-11-19T03:54:17.861Z,-0.20
2022-11-19T03:56:47.445Z,-0.20
2022-11-19T03:59:15.904Z,-0.20
2022-11-19T04:01:47.633Z,-0.30
2022-11-19T04:04:34.646Z,-0.30
2022-11-19T04:07:02.676Z,-0.20
2022-11-19T04:09:30.724Z,-0.20
2022-11-19T04:12:01.276Z,-0.30
2022-11-19T04:14:29.311Z,-0.30
2022-11-19T04:16:57.595Z,-0.30
2022-11-19T04:19:27.176Z,-0.20
2022-11-19T04:21:55.176Z,-0.20
2022-11-19T04:24:23.225Z,-0.20
2022-11-19T04:26:51.248Z,-0.20
2022-11-19T04:29:19.545Z,-0.20
2022-11-19T04:31:48.940Z,-0.20
2022-11-19T04:34:16.957Z,-0.20
2022-11-19T04:36:46.320Z,-0.20
2022-11-19T04:39:14.328Z,-0.20
2022-11-19T04:41:43.272Z,-0.10
2022-11-19T04:44:11.328Z,-0.20
2022-11-19T04:46:39.326Z,-0.10
2022-11-19T04:49:07.380Z,-0.10
2022-11-19T04:51:35.426Z,-0.10
2022-11-19T04:54:04.976Z,-0.10
2022-11-19T04:56:32.999Z,-0.10
2022-11-19T04:59:00.979Z,-0.10
2022-11-19T05:01:29.060Z,0.00
2022-11-19T05:03:57.093Z,0.00
2022-11-19T05:06:25.108Z,0.00
2022-11-19T05:08:53.150Z,0.00
2022-11-19T05:11:22.611Z,0.00
2022-11-19T05:13:50.601Z,0.00
2022-11-19T05:16:18.631Z,0.00
2022-11-19T05:18:46.701Z,0.00
2022-11-19T05:21:14.733Z,0.00
2022-11-19T05:23:42.717Z,-0.10
2022-11-19T05:26:10.743Z,-0.10
2022-11-19T05:28:40.357Z,-0.10
2022-11-19T05:31:08.916Z,-0.10
2022-11-19T05:33:36.939Z,-0.10
2022-11-19T05:36:05.493Z,-0.20
2022-11-19T05:38:33.489Z,-0.20
2022-11-19T05:41:01.479Z,-0.30
2022-11-19T05:43:29.696Z,-0.30
2022-11-19T05:46:01.914Z,-0.20
2022-11-19T05:48:30.102Z,-0.20
2022-11-19T05:50:58.365Z,-0.10
2022-11-19T05:53:27.294Z,-0.10
2022-11-19T05:55:55.294Z,-0.10
2022-11-19T05:58:23.403Z,-0.10
2022-11-19T06:00:55.935Z,0.00
2022-11-19T06:03:25.376Z,0.00
2022-11-19T06:05:53.499Z,0.00
2022-11-19T06:08:21.490Z,0.00
2022-11-19T06:10:49.499Z,0.00
2022-11-19T06:13:17.583Z,0.00
2022-11-19T06:15:45.581Z,0.00
2022-11-19T06:18:13.576Z,0.00
2022-11-19T06:20:42.955Z,0.00
2022-11-19T06:23:10.974Z,0.00
2022-11-19T06:25:39.005Z,0.00
2022-11-19T06:28:07.397Z,0.00
2022-11-19T06:30:35.598Z,0.00
2022-11-19T06:33:03.593Z,0.00
2022-11-19T06:35:31.962Z,0.00
2022-11-19T06:38:01.295Z,0.00
2022-11-19T06:40:29.300Z,0.00
2022-11-19T06:42:57.275Z,0.00
2022-11-19T06:45:25.264Z,0.00
2022-11-19T06:47:53.251Z,0.00
2022-11-19T06:50:21.399Z,0.10
2022-11-19T06:52:49.398Z,0.10
2022-11-19T06:55:19.035Z,0.10
2022-11-19T06:57:47.092Z,0.10
2022-11-19T07:00:16.269Z,0.10
2022-11-19T07:02:44.275Z,0.10
2022-11-19T07:05:12.260Z,0.10
2022-11-19T07:07:40.344Z,0.10
2022-11-19T07:10:09.574Z,0.10
2022-11-19T07:12:38.929Z,0.10
2022-11-19T07:15:07.603Z,0.10
2022-11-19T07:17:35.806Z,0.10
2022-11-19T07:20:03.930Z,0.10
2022-11-19T07:22:31.946Z,0.20
2022-11-19T07:25:00.461Z,0.20
2022-11-19T07:27:28.453Z,0.10
2022-11-19T07:29:57.820Z,0.20
2022-11-19T07:32:25.815Z,0.20
2022-11-19T07:34:53.921Z,0.20
2022-11-19T07:37:21.937Z,0.20
2022-11-19T07:39:49.939Z,0.20
2022-11-19T07:42:35.514Z,0.20
2022-11-19T07:45:05.728Z,0.30
2022-11-19T07:47:34.821Z,0.30
2022-11-19T07:50:03.073Z,0.30
2022-11-19T07:52:33.810Z,0.30
2022-11-19T07:55:02.176Z,0.30
2022-11-19T07:57:30.704Z,0.30
2022-11-19T07:59:58.939Z,0.30
2022-11-19T08:02:28.348Z,0.30
2022-11-19T08:04:57.681Z,0.30
2022-11-19T08:07:25.748Z,0.40
2022-11-19T08:09:53.768Z,0.40
2022-11-19T08:12:21.851Z,0.40
2022-11-19T08:14:49.859Z,0.40
2022-11-19T08:17:35.372Z,0.50
2022-11-19T08:20:05.341Z,0.40
2022-11-19T08:22:33.368Z,0.50
2022-11-19T08:25:01.347Z,0.50
2022-11-19T08:27:29.347Z,0.50
2022-11-19T08:29:57.452Z,0.50
2022-11-19T08:32:25.549Z,0.60
2022-11-19T08:34:53.531Z,0.60
2022-11-19T08:37:22.900Z,0.60
2022-11-19T08:39:51.116Z,0.60
2022-11-19T08:42:36.378Z,0.60
2022-11-19T08:45:04.958Z,0.60
2022-11-19T08:47:32.949Z,0.60
2022-11-19T08:50:00.941Z,0.60
2022-11-19T08:52:30.365Z,0.60
2022-11-19T08:54:58.368Z,0.60
2022-11-19T08:57:26.323Z,0.60
2022-11-19T08:59:54.320Z,0.60
2022-11-19T09:02:22.412Z,0.60
2022-11-19T09:04:50.396Z,0.50
2022-11-19T09:07:18.452Z,0.60
2022-11-19T09:09:47.813Z,0.60
2022-11-19T09:12:17.040Z,0.60
2022-11-19T09:14:46.352Z,0.60
2022-11-19T09:17:14.454Z,0.50
2022-11-19T09:19:42.432Z,0.50
2022-11-19T09:22:10.419Z,0.60
2022-11-19T09:24:38.417Z,0.60
2022-11-19T09:27:07.795Z,0.60
2022-11-19T09:29:38.080Z,0.60
2022-11-19T09:32:06.214Z,0.60
2022-11-19T09:34:35.156Z,0.70
2022-11-19T09:37:03.203Z,0.70
2022-11-19T09:39:31.211Z,0.70
2022-11-19T09:42:13.581Z,0.70
2022-11-19T09:45:04.763Z,0.80
2022-11-19T09:47:57.087Z,0.70
2022-11-19T09:50:27.759Z,0.70
2022-11-19T09:52:59.295Z,0.70
2022-11-19T09:55:33.258Z,0.80
2022-11-19T09:58:02.777Z,0.80
2022-11-19T10:00:33.071Z,0.80
2022-11-19T10:03:07.249Z,0.90
2022-11-19T10:05:44.782Z,0.80
2022-11-19T10:08:29.687Z,0.90
2022-11-19T10:11:09.697Z,0.80
2022-11-19T10:13:50.230Z,0.90
2022-11-19T10:16:30.700Z,0.90
2022-11-19T10:19:08.559Z,1.00
2022-11-19T10:21:44.061Z,1.00
2022-11-19T10:24:18.250Z,1.00
2022-11-19T10:26:55.711Z,1.10
2022-11-19T10:29:29.071Z,1.10
2022-11-19T10:32:21.232Z,1.10
2022-11-19T10:34:53.957Z,1.20
2022-11-19T10:37:23.803Z,1.20
2022-11-19T10:39:56.113Z,1.20
2022-11-19T10:42:28.654Z,1.20
2022-11-19T10:45:01.548Z,1.20
2022-11-19T10:47:37.814Z,1.20
2022-11-19T10:50:11.132Z,1.20
2022-11-19T10:52:43.567Z,1.20
2022-11-19T10:55:19.819Z,1.20
2022-11-19T10:57:49.693Z,1.30
2022-11-19T11:00:19.082Z,1.30
2022-11-19T11:02:54.437Z,1.30
2022-11-19T11:05:22.418Z,1.40
2022-11-19T11:07:58.192Z,1.40
2022-11-19T11:10:38.447Z,1.40
2022-11-19T11:13:40.998Z,1.40
2022-11-19T11:16:12.223Z,1.40
2022-11-19T11:18:41.864Z,1.40
2022-11-19T11:21:13.708Z,1.50
2022-11-19T11:23:52.016Z,1.50
2022-11-19T11:26:23.099Z,1.50
2022-11-19T11:29:05.603Z,1.50
2022-11-19T11:31:41.079Z,1.50
2022-11-19T11:34:28.612Z,1.50
2022-11-19T11:36:57.569Z,1.50
2022-11-19T11:39:31.716Z,1.50
2022-11-19T11:42:06.220Z,1.60
2022-11-19T11:44:38.243Z,1.60
2022-11-19T11:47:14.013Z,1.60
2022-11-19T11:49:45.838Z,1.60
2022-11-19T11:52:23.652Z,1.60
2022-11-19T11:54:57.780Z,1.60
2022-11-19T11:57:28.208Z,1.70
2022-11-19T11:59:57.011Z,1.70
2022-11-19T12:02:30.297Z,1.80
2022-11-19T12:05:02.108Z,1.70
2022-11-19T12:08:03.499Z,1.80
2022-11-19T12:10:40.514Z,1.70
2022-11-19T12:13:37.405Z,1.70
2022-11-19T12:16:12.047Z,1.80
2022-11-19T12:18:50.463Z,1.80
2022-11-19T12:21:29.214Z,1.80
2022-11-19T12:24:19.047Z,1.90
2022-11-19T12:26:54.612Z,1.90
2022-11-19T12:29:29.078Z,1.90
2022-11-19T12:32:22.638Z,1.90
2022-11-19T12:35:15.095Z,1.90
2022-11-19T12:37:59.243Z,1.90
2022-11-19T12:40:41.801Z,1.90
2022-11-19T12:43:20.526Z,1.90
2022-11-19T12:46:02.744Z,1.90
2022-11-19T12:48:51.628Z,1.90
2022-11-19T12:51:32.881Z,1.80
2022-11-19T12:54:19.486Z,1.80
2022-11-19T12:57:01.712Z,1.70
2022-11-19T12:59:45.352Z,1.80
2022-11-19T13:02:19.553Z,1.80
2022-11-19T13:04:52.745Z,1.80
2022-11-19T13:07:24.002Z,1.80
2022-11-19T13:10:00.476Z,1.80
2022-11-19T13:12:35.021Z,1.80
2022-11-19T13:15:09.151Z,1.80
2022-11-19T13:17:42.200Z,1.80
2022-11-19T13:20:18.267Z,1.80
2022-11-19T13:22:48.272Z,1.80
2022-11-19T13:25:23.979Z,1.80
2022-11-19T13:27:54.881Z,1.80
2022-11-19T13:30:26.663Z,1.80
2022-11-19T13:33:03.437Z,1.80
2022-11-19T13:35:38.411Z,1.70
2022-11-19T13:38:17.648Z,1.70
2022-11-19T13:40:52.105Z,1.70
2022-11-19T13:43:40.129Z,1.70
2022-11-19T13:46:20.951Z,1.70
2022-11-19T13:48:55.728Z,1.70
2022-11-19T13:51:35.742Z,1.70
2022-11-19T13:54:05.933Z,1.70
2022-11-19T13:56:43.387Z,1.60
2022-11-19T13:59:26.895Z,1.60
2022-11-19T14:02:16.180Z,1.60
2022-11-19T14:05:13.782Z,1.60
2022-11-19T14:07:59.854Z,1.60
2022-11-19T14:10:34.083Z,1.60
2022-11-19T14:13:23.481Z,1.60
2022-11-19T14:16:23.668Z,1.60
2022-11-19T14:19:12.706Z,1.60
2022-11-19T14:22:06.295Z,1.60
2022-11-19T14:25:14.418Z,1.60
2022-11-19T14:27:43.735Z,1.50
2022-11-19T14:30:21.497Z,1.50
2022-11-19T14:32:52.383Z,1.50
2022-11-19T14:35:38.303Z,1.50
2022-11-19T14:38:37.173Z,1.50
2022-11-19T14:41:24.591Z,1.40
2022-11-19T14:44:13.114Z,1.40
2022-11-19T14:46:47.833Z,1.40
2022-11-19T14:49:35.255Z,1.40
2022-11-19T14:52:04.302Z,1.30
2022-11-19T14:54:38.237Z,1.20
2022-11-19T14:57:17.973Z,1.10
2022-11-19T14:59:51.930Z,1.10
2022-11-19T15:02:27.148Z,1.10
2022-11-19T15:05:00.541Z,1.00
2022-11-19T15:07:38.163Z,1.00
2022-11-19T15:10:30.214Z,0.90
2022-11-19T15:13:20.863Z,0.90
2022-11-19T15:15:51.918Z,0.80
2022-11-19T15:19:05.583Z,0.70
2022-11-19T15:22:01.910Z,0.80
2022-11-19T15:24:45.511Z,0.70
2022-11-19T15:27:21.150Z,0.70
2022-11-19T15:30:06.689Z,0.60
2022-11-19T15:33:10.441Z,0.60
2022-11-19T15:36:17.778Z,0.60
2022-11-19T15:38:51.722Z,0.50
2022-11-19T15:41:24.465Z,0.50
2022-11-19T15:43:57.386Z,0.50
2022-11-19T15:46:35.996Z,0.40
2022-11-19T15:49:12.264Z,0.40
2022-11-19T15:51:57.884Z,0.40
2022-11-19T15:54:29.673Z,0.40
2022-11-19T15:57:05.525Z,0.40
2022-11-19T15:59:37.075Z,0.30
2022-11-19T16:02:07.067Z,0.30
2022-11-19T16:04:38.970Z,0.20
2022-11-19T16:07:11.099Z,0.20
2022-11-19T16:09:39.603Z,0.20
2022-11-19T16:12:25.490Z,0.20
2022-11-19T16:15:11.862Z,0.10
2022-11-19T16:17:45.012Z,0.10
2022-11-19T16:20:21.925Z,0.10
2022-11-19T16:23:00.515Z,0.10
2022-11-19T16:25:34.172Z,0.00
2022-11-19T16:28:06.185Z,0.00
2022-11-19T16:30:46.615Z,-0.10
2022-11-19T16:33:18.603Z,-0.10
2022-11-19T16:35:51.383Z,-0.10
2022-11-19T16:38:27.264Z,-0.10
2022-11-19T16:41:13.537Z,-0.10
2022-11-19T16:43:44.834Z,-0.10
2022-11-19T16:46:16.692Z,-0.10
2022-11-19T16:49:03.443Z,-0.10
2022-11-19T16:51:40.848Z,-0.10
2022-11-19T16:54:12.384Z,-0.10
2022-11-19T16:56:44.104Z,-0.20
2022-11-19T16:59:20.293Z,-0.20
2022-11-19T17:01:53.992Z,-0.20
2022-11-19T17:04:24.258Z,-0.20
2022-11-19T17:06:52.493Z,-0.20
2022-11-19T17:09:41.484Z,-0.20
2022-11-19T17:12:25.123Z,-0.20
2022-11-19T17:14:58.331Z,-0.20
2022-11-19T17:17:41.556Z,-0.30
2022-11-19T17:20:50.906Z,-0.30
2022-11-19T17:23:20.629Z,-0.30
2022-11-19T17:25:53.198Z,-0.30
2022-11-19T17:28:25.935Z,-0.40
2022-11-19T17:30:56.453Z,-0.40
2022-11-19T17:33:24.990Z,-0.30
2022-11-19T17:35:53.213Z,-0.40
2022-11-19T17:38:23.838Z,-0.40
2022-11-19T17:40:54.517Z,-0.40
2022-11-19T17:43:43.297Z,-0.40
2022-11-19T17:46:11.434Z,-0.50
2022-11-19T17:48:42.068Z,-0.50
2022-11-19T17:51:12.788Z,-0.50
2022-11-19T17:53:41.087Z,-0.50
2022-11-19T17:56:17.478Z,-0.50
2022-11-19T17:58:45.532Z,-0.60
2022-11-19T18:01:14.230Z,-0.60
2022-11-19T18:03:42.277Z,-0.60
2022-11-19T18:06:12.966Z,-0.60
2022-11-19T18:08:42.090Z,-0.60
2022-11-19T18:11:14.262Z,-0.70
2022-11-19T18:13:43.232Z,-0.70
2022-11-19T18:16:14.612Z,-0.80
2022-11-19T18:18:42.685Z,-0.80
2022-11-19T18:21:12.974Z,-0.80
2022-11-19T18:23:41.833Z,-0.80
2022-11-19T18:26:12.673Z,-0.80
2022-11-19T18:28:43.736Z,-0.80
2022-11-19T18:31:17.183Z,-0.80
2022-11-19T18:33:45.348Z,-0.80
2022-11-19T18:36:13.585Z,-0.80
2022-11-19T18:38:42.376Z,-0.90
2022-11-19T18:41:12.501Z,-0.80
2022-11-19T18:43:57.790Z,-0.80
2022-11-19T18:46:26.170Z,-0.90
2022-11-19T18:48:54.655Z,-0.90
2022-11-19T18:51:25.260Z,-1.00
2022-11-19T18:53:53.273Z,-1.00
2022-11-19T18:56:22.685Z,-1.00
2022-11-19T18:58:50.784Z,-1.00
2022-11-19T19:01:18.964Z,-1.00
2022-11-19T19:03:47.211Z,-1.00
2022-11-19T19:06:15.696Z,-1.00
2022-11-19T19:08:43.669Z,-1.10
2022-11-19T19:11:32.081Z,-1.10
2022-11-19T19:14:01.795Z,-1.10
2022-11-19T19:16:30.385Z,-1.10
2022-11-19T19:18:59.936Z,-1.10
2022-11-19T19:21:30.118Z,-1.10
2022-11-19T19:24:01.120Z,-1.10
2022-11-19T19:26:29.148Z,-1.20
2022-11-19T19:28:57.137Z,-1.20
2022-11-19T19:31:28.079Z,-1.20
2022-11-19T19:33:56.367Z,-1.20
2022-11-19T19:36:24.404Z,-1.20
2022-11-19T19:38:52.451Z,-1.30
2022-11-19T19:41:24.968Z,-1.30
2022-11-19T19:43:54.392Z,-1.30
2022-11-19T19:46:24.187Z,-1.30
2022-11-19T19:48:57.384Z,-1.40
2022-11-19T19:51:31.376Z,-1.40
2022-11-19T19:53:59.660Z,-1.40
2022-11-19T19:56:28.880Z,-1.40
2022-11-19T19:58:58.172Z,-1.40
2022-11-19T20:01:28.065Z,-1.40
2022-11-19T20:04:02.096Z,-1.40
2022-11-19T20:06:30.559Z,-1.40
2022-11-19T20:09:05.617Z,-1.40
2022-11-19T20:11:36.560Z,-1.50
2022-11-19T20:14:05.676Z,-1.40
2022-11-19T20:16:35.089Z,-1.50
2022-11-19T20:19:05.732Z,-1.50
2022-11-19T20:21:36.908Z,-1.50
2022-11-19T20:24:11.934Z,-1.50
2022-11-19T20:26:41.389Z,-1.50
2022-11-19T20:29:11.579Z,-1.50
2022-11-19T20:31:40.100Z,-1.60
2022-11-19T20:34:11.980Z,-1.60
2022-11-19T20:36:40.086Z,-1.60
2022-11-19T20:39:08.248Z,-1.60
2022-11-19T20:41:54.210Z,-1.60
2022-11-19T20:44:23.081Z,-1.60
2022-11-19T20:46:53.145Z,-1.60
2022-11-19T20:49:24.589Z,-1.60
2022-11-19T20:51:56.659Z,-1.60
2022-11-19T20:54:25.575Z,-1.60
2022-11-19T20:56:54.763Z,-1.60
2022-11-19T20:59:23.729Z,-1.60
2022-11-19T21:01:53.031Z,-1.60
2022-11-19T21:04:24.032Z,-1.70
2022-11-19T21:06:53.761Z,-1.70
2022-11-19T21:09:22.100Z,-1.70
2022-11-19T21:11:50.306Z,-1.70
2022-11-19T21:14:18.532Z,-1.70
2022-11-19T21:16:46.722Z,-1.70
2022-11-19T21:19:17.745Z,-1.70
2022-11-19T21:21:47.243Z,-1.70
2022-11-19T21:24:15.653Z,-1.80
2022-11-19T21:26:43.662Z,-1.80
2022-11-19T21:29:12.542Z,-1.80
2022-11-19T21:31:42.160Z,-1.80
2022-11-19T21:34:12.372Z,-1.80
2022-11-19T21:36:41.883Z,-1.80
2022-11-19T21:39:12.566Z,-1.80
2022-11-19T21:41:40.573Z,-1.90
2022-11-19T21:44:08.718Z,-1.90
2022-11-19T21:46:38.223Z,-1.90
2022-11-19T21:49:06.393Z,-2.00
2022-11-19T21:51:34.604Z,-2.00
2022-11-19T21:54:02.573Z,-2.00
2022-11-19T21:56:37.075Z,-1.90
2022-11-19T21:59:07.191Z,-1.90
2022-11-19T22:01:35.353Z,-1.90
2022-11-19T22:04:04.815Z,-1.90
2022-11-19T22:06:33.429Z,-1.90
2022-11-19T22:09:01.531Z,-1.90
2022-11-19T22:11:31.564Z,-1.90
2022-11-19T22:14:02.117Z,-1.90
2022-11-19T22:16:31.536Z,-2.00
2022-11-19T22:18:59.741Z,-2.00
2022-11-19T22:21:28.978Z,-2.00
2022-11-19T22:23:57.491Z,-2.00
2022-11-19T22:26:26.059Z,-2.00
2022-11-19T22:28:55.610Z,-2.00
2022-11-19T22:31:25.187Z,-2.00
2022-11-19T22:33:54.111Z,-2.00
2022-11-19T22:36:23.136Z,-2.00
2022-11-19T22:38:52.007Z,-2.00
2022-11-19T22:41:22.077Z,-2.00
2022-11-19T22:43:50.828Z,-2.10
2022-11-19T22:46:21.007Z,-2.10
2022-11-19T22:48:49.211Z,-2.10
2022-11-19T22:51:19.043Z,-2.10
2022-11-19T22:53:47.405Z,-2.10
2022-11-19T22:56:17.136Z,-2.10
2022-11-19T22:58:45.117Z,-2.10
2022-11-19T23:01:18.513Z,-2.10
2022-11-19T23:03:48.391Z,-2.10
2022-11-19T23:06:19.146Z,-2.10
2022-11-19T23:08:47.185Z,-2.10
2022-11-19T23:11:16.442Z,-2.10
2022-11-19T23:13:45.086Z,-2.20
2022-11-19T23:16:14.711Z,-2.20
2022-11-19T23:18:47.057Z,-2.20
2022-11-19T23:21:18.443Z,-2.20
2022-11-19T23:23:47.233Z,-2.20
2022-11-19T23:26:19.979Z,-2.20
2022-11-19T23:28:48.209Z,-2.20
2022-11-19T23:31:18.211Z,-2.20
2022-11-19T23:33:47.042Z,-2.20
2022-11-19T23:36:21.817Z,-2.20
2022-11-19T23:38:50.240Z,-2.20
2022-11-19T23:41:20.120Z,-2.30
2022-11-19T23:43:49.312Z,-2.30
2022-11-19T23:46:18.916Z,-2.30
2022-11-19T23:48:48.744Z,-2.30
2022-11-19T23:51:19.702Z,-2.30
2022-11-19T23:53:49.120Z,-2.30
2022-11-19T23:56:18.232Z,-2.30
2022-11-19T23:58:46.330Z,-2.40
